EGDR

RNAS Culdrose Airport

Helston, United Kingdom
METAR EGDR 151950Z AUTO 21006KT 9999 // BKN160/// 19/15 Q1015
Observed Flight Rules
Jul-15 @ 19:50 UTC (an hour ago) Visual Flight Rules
Wind Visibility Clouds
210° at 6 knots 10,000+ meters
  • Broken at 16,000' AGL
Temperatures Readings
Current 19°C / 66°F
Dewpoint 15°C / 59°F
Humidity 78%
Altimeter 29.97" Hg
Pressure 1015 hPa
Elevation 82
METAR EGDR 151950Z AUTO 21006KT 9999 // BKN160/// 19/15 Q1015
Observed Flight Rules
Jul-15 @ 19:50 UTC
(an hour ago)
VFR
Wind Visibility
210° at 6 knots 10,000+ meters
Clouds
  • Broken at 16,000' AGL
Temperature Dewpoint
19°C / 66°F 15°C / 59°F
Humidity Altimeter Pressure
78% 29.97" Hg 1015 hPa